createdAt,value
2022-09-03T00:01:27.648Z,98696.78
2022-09-03T00:04:01.948Z,98691.41
2022-09-03T00:06:43.287Z,98694.09
2022-09-03T00:09:21.634Z,98692.44
2022-09-03T00:11:58.478Z,98692.44
2022-09-03T00:14:37.405Z,98690.81
2022-09-03T00:17:22.625Z,98689.16
2022-09-03T00:20:01.971Z,98695.34
2022-09-03T00:22:47.241Z,98689.16
2022-09-03T00:25:20.741Z,98682.16
2022-09-03T00:27:55.820Z,98684.84
2022-09-03T00:30:24.452Z,98674.31
2022-09-03T00:33:05.696Z,98680.50
2022-09-03T00:35:47.665Z,98675.97
2022-09-03T00:38:15.407Z,98665.25
2022-09-03T00:40:48.858Z,98661.13
2022-09-03T00:43:35.457Z,98660.31
2022-09-03T00:46:30.742Z,98665.66
2022-09-03T00:49:12.197Z,98671.84
2022-09-03T00:52:19.678Z,98671.84
2022-09-03T00:54:59.864Z,98667.53
2022-09-03T00:57:47.630Z,98671.84
2022-09-03T01:00:18.358Z,98669.41
2022-09-03T01:03:08.564Z,98664.03
2022-09-03T01:06:12.816Z,98665.06
2022-09-03T01:09:10.258Z,98670.22
2022-09-03T01:11:47.414Z,98670.44
2022-09-03T01:14:56.566Z,98680.97
2022-09-03T01:17:29.781Z,98678.50
2022-09-03T01:20:10.457Z,98675.00
2022-09-03T01:23:00.505Z,98677.69
2022-09-03T01:25:44.481Z,98677.69
2022-09-03T01:28:20.530Z,98672.31
2022-09-03T01:31:16.829Z,98684.09
2022-09-03T01:33:55.613Z,98689.47
2022-09-03T01:36:52.270Z,98688.63
2022-09-03T01:39:54.097Z,98690.50
2022-09-03T01:42:46.800Z,98677.28
2022-09-03T01:45:29.438Z,98681.63
2022-09-03T01:47:57.440Z,98677.28
2022-09-03T01:51:02.421Z,98682.91
2022-09-03T01:54:07.780Z,98681.84
2022-09-03T01:57:03.137Z,98690.97
2022-09-03T01:59:44.985Z,98687.44
2022-09-03T02:02:21.690Z,98688.28
2022-09-03T02:05:20.531Z,98678.56
2022-09-03T02:07:53.008Z,98677.97
2022-09-03T02:10:29.998Z,98682.31
2022-09-03T02:13:32.036Z,98679.00
2022-09-03T02:16:06.920Z,98675.28
2022-09-03T02:18:41.412Z,98685.19
2022-09-03T02:21:10.749Z,98686.00
2022-09-03T02:23:40.385Z,98680.66
2022-09-03T02:26:11.313Z,98683.56
2022-09-03T02:28:38.961Z,98679.00
2022-09-03T02:31:07.208Z,98684.34
2022-09-03T02:33:38.928Z,98683.56
2022-09-03T02:36:10.292Z,98691.59
2022-09-03T02:38:38.040Z,98690.75
2022-09-03T02:41:05.568Z,98687.25
2022-09-03T02:43:48.200Z,98686.44
2022-09-03T02:46:27.114Z,98694.50
2022-09-03T02:48:55.979Z,98693.44
2022-09-03T02:51:23.354Z,98686.44
2022-09-03T02:53:51.134Z,98690.16
2022-09-03T02:56:19.037Z,98691.81
2022-09-03T02:58:46.508Z,98698.19
2022-09-03T03:01:23.702Z,98700.88
2022-09-03T03:03:52.742Z,98691.22
2022-09-03T03:06:20.858Z,98691.22
2022-09-03T03:08:50.022Z,98691.81
2022-09-03T03:11:19.855Z,98690.16
2022-09-03T03:13:47.327Z,98690.16
2022-09-03T03:16:17.025Z,98690.16
2022-09-03T03:18:46.367Z,98686.88
2022-09-03T03:21:16.561Z,98693.88
2022-09-03T03:23:44.493Z,98685.84
2022-09-03T03:26:15.024Z,98693.88
2022-09-03T03:28:42.936Z,98693.09
2022-09-03T03:31:18.754Z,98686.88
2022-09-03T03:33:54.709Z,98699.25
2022-09-03T03:36:23.850Z,98713.69
2022-09-03T03:38:56.846Z,98715.34
2022-09-03T03:41:33.246Z,98708.34
2022-09-03T03:44:03.667Z,98702.97
2022-09-03T03:46:39.225Z,98700.28
2022-09-03T03:49:07.725Z,98701.94
2022-09-03T03:51:37.135Z,98692.22
2022-09-03T03:54:05.785Z,98698.44
2022-09-03T03:56:34.793Z,98695.97
2022-09-03T03:59:03.181Z,98696.78
2022-09-03T04:01:30.680Z,98691.41
2022-09-03T04:04:00.148Z,98694.31
2022-09-03T04:06:28.749Z,98694.31
2022-09-03T04:08:56.124Z,98696.19
2022-09-03T04:11:24.829Z,98691.63
2022-09-03T04:13:53.351Z,98694.31
2022-09-03T04:16:27.677Z,98687.31
2022-09-03T04:18:56.660Z,98682.56
2022-09-03T04:21:27.890Z,98681.75
2022-09-03T04:23:58.146Z,98683.59
2022-09-03T04:26:33.263Z,98688.13
2022-09-03T04:29:07.265Z,98684.44
2022-09-03T04:31:36.116Z,98692.69
2022-09-03T04:34:06.527Z,98692.69
2022-09-03T04:36:35.245Z,98693.50
2022-09-03T04:39:02.890Z,98698.06
2022-09-03T04:41:31.537Z,98701.56
2022-09-03T04:43:59.905Z,98705.88
2022-09-03T04:46:33.677Z,98709.38
2022-09-03T04:49:02.410Z,98707.50
2022-09-03T04:51:32.641Z,98712.06
2022-09-03T04:54:02.117Z,98717.44
2022-09-03T04:56:32.649Z,98714.75
2022-09-03T04:59:05.878Z,98712.88
2022-09-03T05:01:35.334Z,98713.09
2022-09-03T05:04:03.215Z,98715.78
2022-09-03T05:06:31.940Z,98721.16
2022-09-03T05:09:00.361Z,98720.13
2022-09-03T05:11:29.340Z,98725.47
2022-09-03T05:13:59.112Z,98722.81
2022-09-03T05:16:28.857Z,98733.53
2022-09-03T05:18:59.656Z,98722.81
2022-09-03T05:21:28.654Z,98728.16
2022-09-03T05:23:56.443Z,98724.44
2022-09-03T05:26:26.765Z,98726.09
2022-09-03T05:28:59.682Z,98726.09
2022-09-03T05:31:30.157Z,98738.44
2022-09-03T05:34:00.438Z,98735.75
2022-09-03T05:36:30.297Z,98732.66
2022-09-03T05:38:59.091Z,98745.03
2022-09-03T05:41:28.191Z,98740.28
2022-09-03T05:43:58.706Z,98732.81
2022-09-03T05:46:32.060Z,98726.44
2022-09-03T05:49:05.774Z,98724.34
2022-09-03T05:51:35.490Z,98720.59
2022-09-03T05:54:04.174Z,98725.97
2022-09-03T05:56:33.481Z,98731.13
2022-09-03T05:59:03.445Z,98730.88
2022-09-03T06:01:33.912Z,98728.19
2022-09-03T06:04:06.717Z,98732.09
2022-09-03T06:06:38.000Z,98725.91
2022-09-03T06:09:07.881Z,98724.63
2022-09-03T06:11:38.044Z,98719.25
2022-09-03T06:14:11.802Z,98730.59
2022-09-03T06:16:44.856Z,98724.19
2022-09-03T06:19:13.965Z,98724.81
2022-09-03T06:21:44.796Z,98725.41
2022-09-03T06:24:17.809Z,98720.84
2022-09-03T06:26:46.590Z,98722.47
2022-09-03T06:29:15.129Z,98722.25
2022-09-03T06:31:42.813Z,98726.56
2022-09-03T06:34:10.524Z,98723.66
2022-09-03T06:36:41.389Z,98726.94
2022-09-03T06:39:09.126Z,98728.59
2022-09-03T06:41:37.268Z,98726.50
2022-09-03T06:44:11.276Z,98725.47
2022-09-03T06:46:42.632Z,98731.44
2022-09-03T06:49:11.439Z,98725.84
2022-09-03T06:51:40.614Z,98729.34
2022-09-03T06:54:10.548Z,98726.44
2022-09-03T06:56:40.795Z,98728.06
2022-09-03T06:59:13.995Z,98738.34
2022-09-03T07:01:45.337Z,98748.66
2022-09-03T07:04:16.815Z,98739.53
2022-09-03T07:06:47.253Z,98740.13
2022-09-03T07:09:15.876Z,98751.47
2022-09-03T07:11:52.529Z,98748.56
2022-09-03T07:14:21.489Z,98747.75
2022-09-03T07:16:49.793Z,98752.06
2022-09-03T07:19:17.634Z,98750.44
2022-09-03T07:21:49.599Z,98750.44
2022-09-03T07:24:21.827Z,98748.34
2022-09-03T07:26:50.209Z,98749.97
2022-09-03T07:29:20.613Z,98745.22
2022-09-03T07:31:51.898Z,98746.63
2022-09-03T07:34:22.079Z,98732.97
2022-09-03T07:36:51.837Z,98738.94
2022-09-03T07:39:19.947Z,98736.84
2022-09-03T07:41:47.621Z,98736.38
2022-09-03T07:44:21.445Z,98746.69
2022-09-03T07:46:51.089Z,98744.59
2022-09-03T07:49:21.091Z,98747.28
2022-09-03T07:51:50.889Z,98759.22
2022-09-03T07:54:18.557Z,98768.94
2022-09-03T07:56:45.928Z,98763.56
2022-09-03T07:59:13.590Z,98747.44
2022-09-03T08:01:41.201Z,98749.06
2022-09-03T08:04:10.880Z,98745.34
2022-09-03T08:06:39.171Z,98751.53
2022-09-03T08:09:09.848Z,98747.56
2022-09-03T08:11:39.657Z,98761.00
2022-09-03T08:14:09.634Z,98756.22
2022-09-03T08:16:39.804Z,98744.88
2022-09-03T08:19:07.487Z,98758.31
2022-09-03T08:21:35.586Z,98767.19
2022-09-03T08:24:03.573Z,98771.75
2022-09-03T08:26:34.918Z,98767.44
2022-09-03T08:29:04.594Z,98763.09
2022-09-03T08:31:33.452Z,98763.09
2022-09-03T08:34:06.649Z,98766.84
2022-09-03T08:36:37.072Z,98767.88
2022-09-03T08:39:12.467Z,98766.25
2022-09-03T08:41:46.996Z,98774.31
2022-09-03T08:44:47.240Z,98766.84
2022-09-03T08:47:25.096Z,98769.53
2022-09-03T08:49:58.607Z,98768.47
2022-09-03T08:52:32.494Z,98759.38
2022-09-03T08:55:18.976Z,98748.63
2022-09-03T08:58:14.647Z,98740.59
2022-09-03T09:01:37.708Z,98749.66
2022-09-03T09:04:50.258Z,98742.44
2022-09-03T09:07:33.007Z,98741.59
2022-09-03T09:10:26.980Z,98737.88
2022-09-03T09:13:16.218Z,98733.56
2022-09-03T09:16:10.284Z,98737.63
2022-09-03T09:19:07.838Z,98741.16
2022-09-03T09:22:03.829Z,98735.34
2022-09-03T09:24:42.185Z,98740.72
2022-09-03T09:27:14.062Z,98737.81
2022-09-03T09:29:48.112Z,98740.28
2022-09-03T09:32:18.891Z,98744.00
2022-09-03T09:34:52.334Z,98734.91
2022-09-03T09:37:21.488Z,98733.03
2022-09-03T09:39:58.875Z,98746.19
2022-09-03T09:42:29.891Z,98735.72
2022-09-03T09:44:57.402Z,98740.03
2022-09-03T09:47:38.511Z,98743.53
2022-09-03T09:50:24.855Z,98747.28
2022-09-03T09:53:08.529Z,98748.06
2022-09-03T09:55:48.994Z,98751.81
2022-09-03T09:58:19.983Z,98767.13
2022-09-03T10:01:22.657Z,98766.28
2022-09-03T10:03:56.017Z,98770.03
2022-09-03T10:06:48.499Z,98767.94
2022-09-03T10:09:20.855Z,98751.00
2022-09-03T10:11:53.623Z,98759.28
2022-09-03T10:14:33.286Z,98761.16
2022-09-03T10:17:40.652Z,98754.13
2022-09-03T10:20:31.263Z,98750.84
2022-09-03T10:23:05.006Z,98747.13
2022-09-03T10:25:42.841Z,98753.31
2022-09-03T10:28:13.224Z,98756.81
2022-09-03T10:30:55.193Z,98755.19
2022-09-03T10:33:50.942Z,98748.38
2022-09-03T10:36:20.939Z,98749.44
2022-09-03T10:38:55.080Z,98743.69
2022-09-03T10:41:47.447Z,98750.56
2022-09-03T10:44:48.104Z,98755.78
2022-09-03T10:47:15.609Z,98752.50
2022-09-03T10:50:01.655Z,98756.25
2022-09-03T10:52:43.901Z,98758.34
2022-09-03T10:55:40.750Z,98757.75
2022-09-03T10:58:14.194Z,98758.75
2022-09-03T11:00:52.489Z,98762.50
2022-09-03T11:03:39.052Z,98760.03
2022-09-03T11:06:29.202Z,98757.34
2022-09-03T11:09:06.518Z,98751.19
2022-09-03T11:11:44.363Z,98746.84
2022-09-03T11:14:16.998Z,98746.03
2022-09-03T11:16:52.066Z,98752.19
2022-09-03T11:19:35.194Z,98743.13
2022-09-03T11:22:06.618Z,98746.03
2022-09-03T11:24:35.421Z,98749.53
2022-09-03T11:27:16.606Z,98749.53
2022-09-03T11:29:54.015Z,98746.84
2022-09-03T11:32:43.117Z,98736.09
2022-09-03T11:35:28.967Z,98746.84
2022-09-03T11:38:08.638Z,98740.66
2022-09-03T11:40:42.212Z,98739.84
2022-09-03T11:43:25.024Z,98729.09
2022-09-03T11:46:05.057Z,98728.28
2022-09-03T11:48:40.821Z,98723.72
2022-09-03T11:51:26.868Z,98729.09
2022-09-03T11:53:59.342Z,98729.09
2022-09-03T11:56:27.027Z,98730.97
2022-09-03T11:59:17.566Z,98721.25
2022-09-03T12:01:58.988Z,98730.72
2022-09-03T12:04:35.088Z,98715.44
2022-09-03T12:07:43.350Z,98723.25
2022-09-03T12:10:35.882Z,98723.25
2022-09-03T12:13:15.391Z,98720.56
2022-09-03T12:16:06.041Z,98716.03
2022-09-03T12:18:36.045Z,98712.50
2022-09-03T12:21:10.751Z,98712.50
2022-09-03T12:23:50.183Z,98721.63
2022-09-03T12:26:23.756Z,98718.94
2022-09-03T12:28:55.446Z,98714.59
2022-09-03T12:31:25.572Z,98706.34
2022-09-03T12:33:56.327Z,98701.56
2022-09-03T12:36:24.333Z,98698.66
2022-09-03T12:39:11.855Z,98699.69
2022-09-03T12:42:07.993Z,98691.41
2022-09-03T12:44:35.279Z,98690.13
2022-09-03T12:50:09.447Z,98696.31
2022-09-03T12:52:42.902Z,98686.41
2022-09-03T12:55:29.072Z,98685.81
2022-09-03T12:58:02.577Z,98693.88
2022-09-03T13:00:33.810Z,98692.22
2022-09-03T13:03:27.700Z,98694.31
2022-09-03T13:05:59.691Z,98695.97
2022-09-03T13:08:31.780Z,98693.88
2022-09-03T13:11:04.886Z,98685.22
2022-09-03T13:13:37.164Z,98680.06
2022-09-03T13:16:19.599Z,98676.56
2022-09-03T13:18:54.172Z,98677.59
2022-09-03T13:21:27.592Z,98679.47
2022-09-03T13:24:13.814Z,98683.81
2022-09-03T13:26:55.785Z,98681.13
2022-09-03T13:29:30.973Z,98681.94
2022-09-03T13:32:17.193Z,98673.66
2022-09-03T13:34:54.220Z,98674.00
2022-09-03T13:37:37.610Z,98666.56
2022-09-03T13:40:33.346Z,98664.47
2022-09-03T13:43:21.069Z,98677.88
2022-09-03T13:45:57.578Z,98665.06
2022-09-03T13:48:57.357Z,98654.13
2022-09-03T13:51:31.134Z,98665.22
2022-09-03T13:54:36.304Z,98662.31
2022-09-03T13:57:17.438Z,98666.88
2022-09-03T14:00:10.526Z,98662.53
2022-09-03T14:02:58.033Z,98660.69
2022-09-03T14:05:59.708Z,98673.03
2022-09-03T14:09:01.335Z,98672.81
2022-09-03T14:12:03.813Z,98672.00
2022-09-03T14:15:14.114Z,98657.16
2022-09-03T14:17:49.738Z,98663.59
2022-09-03T14:21:05.108Z,98658.22
2022-09-03T14:23:47.427Z,98658.22
2022-09-03T14:26:50.291Z,98666.88
2022-09-03T14:29:20.759Z,98659.41
2022-09-03T14:31:52.122Z,98657.75
2022-09-03T14:34:38.856Z,98663.13
2022-09-03T14:37:29.528Z,98666.03
2022-09-03T14:40:13.477Z,98663.38
2022-09-03T14:43:02.413Z,98654.47
2022-09-03T14:46:05.765Z,98658.22
2022-09-03T14:48:57.801Z,98659.03
2022-09-03T14:51:46.751Z,98654.47
2022-09-03T14:54:32.850Z,98656.34
2022-09-03T14:57:18.707Z,98650.75
2022-09-03T15:00:18.358Z,98644.56
2022-09-03T15:03:04.056Z,98647.25
2022-09-03T15:06:07.205Z,98640.44
2022-09-03T15:09:07.808Z,98643.97
2022-09-03T15:11:48.574Z,98636.72
2022-09-03T15:14:25.178Z,98633.22
2022-09-03T15:17:14.586Z,98640.44
2022-09-03T15:20:07.124Z,98642.09
2022-09-03T15:22:59.846Z,98635.06
2022-09-03T15:25:53.533Z,98639.41
2022-09-03T15:28:24.105Z,98640.44
2022-09-03T15:30:54.581Z,98643.13
2022-09-03T15:33:37.059Z,98644.78
2022-09-03T15:36:20.201Z,98636.72
2022-09-03T15:39:08.800Z,98637.53
2022-09-03T15:42:00.026Z,98637.31
2022-09-03T15:44:43.903Z,98642.69
2022-09-03T15:47:40.046Z,98645.38
2022-09-03T15:50:27.161Z,98641.88
2022-09-03T15:53:00.741Z,98649.09
2022-09-03T15:55:38.921Z,98645.38
2022-09-03T15:58:09.691Z,98652.38
2022-09-03T16:01:06.719Z,98651.56
2022-09-03T16:03:46.698Z,98647.25
2022-09-03T16:06:29.088Z,98648.28
2022-09-03T16:09:04.971Z,98650.16
2022-09-03T16:11:52.156Z,98652.84
2022-09-03T16:14:41.835Z,98655.53
2022-09-03T16:17:24.398Z,98652.84
2022-09-03T16:20:25.003Z,98656.56
2022-09-03T16:22:57.881Z,98653.88
2022-09-03T16:25:48.696Z,98657.41
2022-09-03T16:28:34.994Z,98655.75
2022-09-03T16:31:08.783Z,98661.34
2022-09-03T16:34:02.170Z,98664.03
2022-09-03T16:36:39.478Z,98658.66
2022-09-03T16:39:15.307Z,98655.97
2022-09-03T16:42:06.952Z,98654.31
2022-09-03T16:45:08.828Z,98657.00
2022-09-03T16:47:49.602Z,98655.38
2022-09-03T16:50:41.498Z,98655.38
2022-09-03T16:53:29.307Z,98658.28
2022-09-03T16:56:24.671Z,98659.09
2022-09-03T16:59:11.540Z,98657.47
2022-09-03T17:02:23.713Z,98666.56
2022-09-03T17:05:35.963Z,98661.19
2022-09-03T17:08:07.193Z,98653.13
2022-09-03T17:10:46.261Z,98655.81
2022-09-03T17:13:33.246Z,98664.94
2022-09-03T17:16:34.390Z,98659.56
2022-09-03T17:19:04.998Z,98659.56
2022-09-03T17:21:46.033Z,98659.56
2022-09-03T17:24:51.841Z,98663.28
2022-09-03T17:27:49.455Z,98659.56
2022-09-03T17:30:23.940Z,98663.28
2022-09-03T17:32:57.654Z,98666.78
2022-09-03T17:35:38.244Z,98670.31
2022-09-03T17:38:29.909Z,98676.69
2022-09-03T17:41:16.359Z,98679.38
2022-09-03T17:44:25.920Z,98674.00
2022-09-03T17:47:14.870Z,98680.44
2022-09-03T17:49:48.435Z,98676.69
2022-09-03T17:52:32.114Z,98681.03
2022-09-03T17:55:11.985Z,98672.41
2022-09-03T17:57:46.942Z,98679.38
2022-09-03T18:00:36.802Z,98690.13
2022-09-03T18:03:21.397Z,98695.50
2022-09-03T18:06:01.177Z,98684.75
2022-09-03T18:08:50.757Z,98687.44
2022-09-03T18:11:40.911Z,98688.50
2022-09-03T18:14:22.406Z,98692.22
2022-09-03T18:17:03.127Z,98692.81
2022-09-03T18:19:58.186Z,98693.88
2022-09-03T18:22:59.791Z,98691.19
2022-09-03T18:25:48.053Z,98693.88
2022-09-03T18:28:38.360Z,98698.44
2022-09-03T18:31:32.298Z,98697.59
2022-09-03T18:34:18.347Z,98702.97
2022-09-03T18:37:04.942Z,98703.81
2022-09-03T18:39:51.362Z,98705.66
2022-09-03T18:42:40.614Z,98706.72
2022-09-03T18:46:22.370Z,98700.53
2022-09-03T18:49:01.251Z,98699.69
2022-09-03T18:52:01.428Z,98708.59
2022-09-03T18:55:06.664Z,98707.75
2022-09-03T18:58:15.415Z,98705.06
2022-09-03T19:01:32.575Z,98701.56
2022-09-03T19:04:49.693Z,98698.88
2022-09-03T19:07:58.993Z,98712.28
2022-09-03T19:11:12.028Z,98714.97
2022-09-03T19:13:59.786Z,98703.44
2022-09-03T19:16:51.796Z,98717.88
2022-09-03T19:19:47.380Z,98712.50
2022-09-03T19:23:00.826Z,98712.50
2022-09-03T19:25:48.785Z,98712.50
2022-09-03T19:28:37.791Z,98710.88
2022-09-03T19:31:46.631Z,98714.38
2022-09-03T19:34:51.715Z,98714.59
2022-09-03T19:37:48.988Z,98711.91
2022-09-03T19:41:09.187Z,98713.78
2022-09-03T19:44:23.160Z,98710.28
2022-09-03T19:47:12.070Z,98712.97
2022-09-03T19:50:18.562Z,98714.03
2022-09-03T19:53:14.303Z,98722.09
2022-09-03T19:56:07.360Z,98716.72
2022-09-03T19:58:57.143Z,98725.81
2022-09-03T20:01:51.585Z,98727.47
2022-09-03T20:04:42.140Z,98729.09
2022-09-03T20:07:29.189Z,98727.47
2022-09-03T20:10:17.829Z,98730.16
2022-09-03T20:13:08.241Z,98730.16
2022-09-03T20:16:03.822Z,98738.22
2022-09-03T20:18:31.582Z,98738.22
2022-09-03T20:21:23.504Z,98741.13
2022-09-03T20:24:11.205Z,98742.97
2022-09-03T20:27:16.168Z,98743.78
2022-09-03T20:30:04.718Z,98740.28
2022-09-03T20:33:00.161Z,98741.13
2022-09-03T20:35:35.150Z,98740.28
2022-09-03T20:38:27.336Z,98738.66
2022-09-03T20:41:14.681Z,98735.97
2022-09-03T20:43:56.411Z,98731.66
2022-09-03T20:46:48.621Z,98739.47
2022-09-03T20:49:53.258Z,98728.97
2022-09-03T20:52:32.604Z,98739.47
2022-09-03T20:55:15.158Z,98739.69
2022-09-03T20:58:21.773Z,98736.19
2022-09-03T21:00:53.657Z,98741.53
2022-09-03T21:03:44.500Z,98739.09
2022-09-03T21:06:48.174Z,98745.06
2022-09-03T21:09:30.957Z,98740.72
2022-09-03T21:12:01.664Z,98746.09
2022-09-03T21:14:40.074Z,98754.38
2022-09-03T21:17:36.126Z,98756.84
2022-09-03T21:20:36.017Z,98755.22
2022-09-03T21:23:27.967Z,98755.22
2022-09-03T21:26:13.818Z,98755.22
2022-09-03T21:28:46.757Z,98757.91
2022-09-03T21:31:26.188Z,98760.59
2022-09-03T21:34:05.097Z,98758.13
2022-09-03T21:36:35.251Z,98750.88
2022-09-03T21:39:19.473Z,98748.19
2022-09-03T21:41:55.599Z,98757.31
2022-09-03T21:44:46.836Z,98754.63
2022-09-03T21:47:17.362Z,98756.50
2022-09-03T21:50:01.263Z,98748.66
2022-09-03T21:52:40.805Z,98744.91
2022-09-03T21:55:22.354Z,98742.22
2022-09-03T21:58:37.206Z,98749.25
2022-09-03T22:01:18.114Z,98750.28
2022-09-03T22:03:45.883Z,98744.91
2022-09-03T22:06:31.450Z,98748.66
2022-09-03T22:09:13.758Z,98750.28
2022-09-03T22:12:25.427Z,98744.09
2022-09-03T22:14:55.593Z,98748.66
2022-09-03T22:17:43.881Z,98745.97
2022-09-03T22:20:15.489Z,98747.84
2022-09-03T22:22:56.608Z,98762.06
2022-09-03T22:25:43.810Z,98752.38
2022-09-03T22:28:21.102Z,98764.75
2022-09-03T22:31:03.987Z,98764.75
2022-09-03T22:33:46.650Z,98768.47
2022-09-03T22:36:33.874Z,98766.84
2022-09-03T22:39:15.586Z,98762.28
2022-09-03T22:42:00.267Z,98764.16
2022-09-03T22:44:35.078Z,98761.47
2022-09-03T22:47:37.314Z,98757.97
2022-09-03T22:50:11.186Z,98759.59
2022-09-03T22:52:44.619Z,98762.28
2022-09-03T22:55:23.251Z,98755.28
2022-09-03T22:57:57.276Z,98750.75
2022-09-03T23:00:24.900Z,98756.09
2022-09-03T23:03:16.709Z,98743.72
2022-09-03T23:05:56.731Z,98743.72
2022-09-03T23:08:29.332Z,98743.72
2022-09-03T23:11:09.612Z,98759.81
2022-09-03T23:13:46.190Z,98749.31
2022-09-03T23:16:30.579Z,98746.66
2022-09-03T23:19:02.017Z,98749.31
2022-09-03T23:21:40.796Z,98746.66
2022-09-03T23:24:15.646Z,98745.81
2022-09-03T23:26:47.904Z,98746.41
2022-09-03T23:29:23.578Z,98751.16
2022-09-03T23:31:52.823Z,98745.81
2022-09-03T23:34:20.634Z,98752.00
2022-09-03T23:37:32.602Z,98752.00
2022-09-03T23:40:27.881Z,98751.16
2022-09-03T23:43:04.420Z,98746.03
2022-09-03T23:45:55.539Z,98750.34
2022-09-03T23:48:42.468Z,98744.19
2022-09-03T23:51:49.787Z,98751.41
2022-09-03T23:54:44.690Z,98751.41
2022-09-03T23:57:37.076Z,98763.19
